sensor_id;sensor_type;location;lat;lon;timestamp;pressure;altitude;pressure_sealevel;temperature;humidity
70053;BME280;57398;52.032;4.376;2023-03-26T00:02:20;101714.63;;;7.29;100.00
70053;BME280;57398;52.032;4.376;2023-03-26T00:05:09;101720.69;;;7.37;100.00
70053;BME280;57398;52.032;4.376;2023-03-26T00:08:01;101742.47;;;7.42;100.00
70053;BME280;57398;52.032;4.376;2023-03-26T00:10:49;101753.75;;;7.41;100.00
70053;BME280;57398;52.032;4.376;2023-03-26T00:13:38;101764.09;;;7.41;100.00
70053;BME280;57398;52.032;4.376;2023-03-26T00:16:29;101785.06;;;7.46;100.00
70053;BME280;57398;52.032;4.376;2023-03-26T00:19:17;101825.47;;;7.47;100.00
70053;BME280;57398;52.032;4.376;2023-03-26T00:22:05;101838.03;;;7.50;100.00
70053;BME280;57398;52.032;4.376;2023-03-26T00:24:55;101854.69;;;7.48;100.00
70053;BME280;57398;52.032;4.376;2023-03-26T00:27:45;101864.41;;;7.46;100.00
70053;BME280;57398;52.032;4.376;2023-03-26T00:30:34;101887.22;;;7.42;100.00
70053;BME280;57398;52.032;4.376;2023-03-26T00:33:22;101917.25;;;7.43;100.00
70053;BME280;57398;52.032;4.376;2023-03-26T00:36:12;101934.72;;;7.41;100.00
70053;BME280;57398;52.032;4.376;2023-03-26T00:39:03;101967.88;;;7.38;100.00
70053;BME280;57398;52.032;4.376;2023-03-26T00:41:53;102001.75;;;7.43;100.00
70053;BME280;57398;52.032;4.376;2023-03-26T00:44:41;102011.31;;;7.42;100.00
70053;BME280;57398;52.032;4.376;2023-03-26T00:47:29;102035.06;;;7.38;100.00
70053;BME280;57398;52.032;4.376;2023-03-26T00:50:17;102085.31;;;7.35;100.00
70053;BME280;57398;52.032;4.376;2023-03-26T00:53:05;102109.88;;;7.31;100.00
70053;BME280;57398;52.032;4.376;2023-03-26T00:55:54;102151.56;;;7.28;100.00
70053;BME280;57398;52.032;4.376;2023-03-26T00:58:47;102179.53;;;7.24;100.00
70053;BME280;57398;52.032;4.376;2023-03-26T01:01:36;102278.69;;;7.23;100.00
70053;BME280;57398;52.032;4.376;2023-03-26T01:04:27;102399.81;;;7.18;100.00
70053;BME280;57398;52.032;4.376;2023-03-26T01:07:17;102514.00;;;7.13;100.00
70053;BME280;57398;52.032;4.376;2023-03-26T01:10:07;102634.75;;;7.03;100.00
70053;BME280;57398;52.032;4.376;2023-03-26T01:12:55;103184.75;;;6.98;100.00
70053;BME280;57398;52.032;4.376;2023-03-26T01:15:44;103203.50;;;6.90;100.00
70053;BME280;57398;52.032;4.376;2023-03-26T01:18:37;103218.72;;;6.84;100.00
70053;BME280;57398;52.032;4.376;2023-03-26T01:21:28;103236.13;;;6.72;100.00
70053;BME280;57398;52.032;4.376;2023-03-26T01:24:18;103256.91;;;6.61;100.00
70053;BME280;57398;52.032;4.376;2023-03-26T01:27:19;103280.25;;;6.59;100.00
70053;BME280;57398;52.032;4.376;2023-03-26T01:30:15;103300.50;;;6.54;100.00
70053;BME280;57398;52.032;4.376;2023-03-26T01:33:12;103318.03;;;6.50;100.00
70053;BME280;57398;52.032;4.376;2023-03-26T01:36:09;103336.75;;;6.43;100.00
70053;BME280;57398;52.032;4.376;2023-03-26T01:39:02;103342.13;;;6.30;100.00
70053;BME280;57398;52.032;4.376;2023-03-26T01:42:00;103350.25;;;6.25;100.00
70053;BME280;57398;52.032;4.376;2023-03-26T01:44:54;103373.66;;;6.13;100.00
70053;BME280;57398;52.032;4.376;2023-03-26T01:47:45;103390.09;;;6.12;100.00
70053;BME280;57398;52.032;4.376;2023-03-26T01:50:33;103425.28;;;6.13;100.00
70053;BME280;57398;52.032;4.376;2023-03-26T01:53:22;103452.97;;;6.11;100.00
70053;BME280;57398;52.032;4.376;2023-03-26T01:56:15;103486.97;;;6.16;100.00
70053;BME280;57398;52.032;4.376;2023-03-26T01:59:19;103539.28;;;6.18;100.00
70053;BME280;57398;52.032;4.376;2023-03-26T02:02:17;103587.13;;;6.22;100.00
70053;BME280;57398;52.032;4.376;2023-03-26T02:05:13;103638.16;;;6.29;100.00
70053;BME280;57398;52.032;4.376;2023-03-26T02:08:04;103680.84;;;6.34;100.00
70053;BME280;57398;52.032;4.376;2023-03-26T02:10:58;103733.56;;;6.42;100.00
70053;BME280;57398;52.032;4.376;2023-03-26T02:13:50;103798.44;;;6.60;100.00
70053;BME280;57398;52.032;4.376;2023-03-26T02:16:40;103841.41;;;6.72;100.00
70053;BME280;57398;52.032;4.376;2023-03-26T02:19:33;103886.38;;;6.81;100.00
70053;BME280;57398;52.032;4.376;2023-03-26T02:22:21;103934.41;;;6.95;100.00
70053;BME280;57398;52.032;4.376;2023-03-26T02:25:18;103958.84;;;7.02;100.00
70053;BME280;57398;52.032;4.376;2023-03-26T02:28:06;103982.59;;;7.07;100.00
70053;BME280;57398;52.032;4.376;2023-03-26T02:30:54;104002.69;;;7.15;100.00
70053;BME280;57398;52.032;4.376;2023-03-26T02:33:44;104008.44;;;7.19;100.00
70053;BME280;57398;52.032;4.376;2023-03-26T02:36:33;104021.00;;;7.23;100.00
70053;BME280;57398;52.032;4.376;2023-03-26T02:39:22;104022.88;;;7.21;100.00
70053;BME280;57398;52.032;4.376;2023-03-26T02:42:10;104020.09;;;7.24;100.00
70053;BME280;57398;52.032;4.376;2023-03-26T02:44:58;104018.66;;;7.20;100.00
70053;BME280;57398;52.032;4.376;2023-03-26T02:47:46;104016.78;;;7.22;100.00
70053;BME280;57398;52.032;4.376;2023-03-26T02:50:38;104014.06;;;7.24;100.00
70053;BME280;57398;52.032;4.376;2023-03-26T02:53:26;104018.31;;;7.25;100.00
70053;BME280;57398;52.032;4.376;2023-03-26T02:56:15;104013.25;;;7.23;100.00
70053;BME280;57398;52.032;4.376;2023-03-26T02:59:03;104006.44;;;7.22;100.00
70053;BME280;57398;52.032;4.376;2023-03-26T03:01:52;104005.28;;;7.26;100.00
70053;BME280;57398;52.032;4.376;2023-03-26T03:04:40;104010.22;;;7.29;100.00
70053;BME280;57398;52.032;4.376;2023-03-26T03:07:29;104005.84;;;7.30;100.00
70053;BME280;57398;52.032;4.376;2023-03-26T03:10:17;104003.41;;;7.28;100.00
70053;BME280;57398;52.032;4.376;2023-03-26T03:13:07;103977.88;;;7.24;100.00
70053;BME280;57398;52.032;4.376;2023-03-26T03:15:55;103978.13;;;7.32;100.00
70053;BME280;57398;52.032;4.376;2023-03-26T03:18:43;103963.41;;;7.32;100.00
70053;BME280;57398;52.032;4.376;2023-03-26T03:21:33;103959.75;;;7.35;100.00
70053;BME280;57398;52.032;4.376;2023-03-26T03:24:23;103937.81;;;7.29;100.00
70053;BME280;57398;52.032;4.376;2023-03-26T03:27:12;103924.06;;;7.29;100.00
70053;BME280;57398;52.032;4.376;2023-03-26T03:30:01;103915.50;;;7.28;100.00
70053;BME280;57398;52.032;4.376;2023-03-26T03:32:50;103911.34;;;7.26;100.00
70053;BME280;57398;52.032;4.376;2023-03-26T03:35:38;103905.16;;;7.28;100.00
70053;BME280;57398;52.032;4.376;2023-03-26T03:38:28;103904.91;;;7.31;100.00
70053;BME280;57398;52.032;4.376;2023-03-26T03:41:17;103900.53;;;7.32;100.00
70053;BME280;57398;52.032;4.376;2023-03-26T03:44:05;103891.00;;;7.32;100.00
70053;BME280;57398;52.032;4.376;2023-03-26T03:46:53;103881.72;;;7.30;100.00
70053;BME280;57398;52.032;4.376;2023-03-26T03:49:42;103862.38;;;7.24;100.00
70053;BME280;57398;52.032;4.376;2023-03-26T03:52:30;103842.03;;;7.20;100.00
70053;BME280;57398;52.032;4.376;2023-03-26T03:55:19;103827.13;;;7.12;100.00
70053;BME280;57398;52.032;4.376;2023-03-26T03:58:11;103831.72;;;7.08;100.00
70053;BME280;57398;52.032;4.376;2023-03-26T04:01:00;103852.28;;;7.10;100.00
70053;BME280;57398;52.032;4.376;2023-03-26T04:03:48;103858.50;;;7.07;100.00
70053;BME280;57398;52.032;4.376;2023-03-26T04:06:37;103840.56;;;7.06;100.00
70053;BME280;57398;52.032;4.376;2023-03-26T04:09:25;103841.13;;;7.09;100.00
70053;BME280;57398;52.032;4.376;2023-03-26T04:12:13;103843.69;;;7.09;100.00
70053;BME280;57398;52.032;4.376;2023-03-26T04:15:03;103853.22;;;7.09;100.00
70053;BME280;57398;52.032;4.376;2023-03-26T04:17:51;103859.81;;;7.13;100.00
70053;BME280;57398;52.032;4.376;2023-03-26T04:20:41;103838.41;;;7.11;100.00
70053;BME280;57398;52.032;4.376;2023-03-26T04:23:33;103813.28;;;7.13;100.00
70053;BME280;57398;52.032;4.376;2023-03-26T04:26:22;103804.19;;;7.19;100.00
70053;BME280;57398;52.032;4.376;2023-03-26T04:29:11;103793.25;;;7.26;100.00
70053;BME280;57398;52.032;4.376;2023-03-26T04:32:04;103766.22;;;7.19;100.00
70053;BME280;57398;52.032;4.376;2023-03-26T04:34:53;103752.25;;;7.22;100.00
70053;BME280;57398;52.032;4.376;2023-03-26T04:37:41;103731.69;;;7.20;100.00
70053;BME280;57398;52.032;4.376;2023-03-26T04:40:32;103709.50;;;7.18;100.00
70053;BME280;57398;52.032;4.376;2023-03-26T04:43:21;103698.78;;;7.22;100.00
70053;BME280;57398;52.032;4.376;2023-03-26T04:46:09;103685.16;;;7.20;100.00
70053;BME280;57398;52.032;4.376;2023-03-26T04:48:59;103662.00;;;7.19;100.00
70053;BME280;57398;52.032;4.376;2023-03-26T04:51:47;103651.56;;;7.20;100.00
70053;BME280;57398;52.032;4.376;2023-03-26T04:54:35;103645.41;;;7.21;100.00
70053;BME280;57398;52.032;4.376;2023-03-26T04:57:27;103630.75;;;7.22;100.00
70053;BME280;57398;52.032;4.376;2023-03-26T05:00:18;103611.69;;;7.23;100.00
70053;BME280;57398;52.032;4.376;2023-03-26T05:03:08;103601.34;;;7.23;100.00
70053;BME280;57398;52.032;4.376;2023-03-26T05:05:59;103579.97;;;7.21;100.00
70053;BME280;57398;52.032;4.376;2023-03-26T05:08:48;103557.34;;;7.13;100.00
70053;BME280;57398;52.032;4.376;2023-03-26T05:11:36;103541.97;;;7.11;100.00
70053;BME280;57398;52.032;4.376;2023-03-26T05:14:24;103544.97;;;7.17;100.00
70053;BME280;57398;52.032;4.376;2023-03-26T05:17:13;103530.56;;;7.14;100.00
70053;BME280;57398;52.032;4.376;2023-03-26T05:20:05;103518.31;;;7.16;100.00
70053;BME280;57398;52.032;4.376;2023-03-26T05:22:56;103499.69;;;7.12;100.00
70053;BME280;57398;52.032;4.376;2023-03-26T05:25:44;103484.16;;;7.12;100.00
70053;BME280;57398;52.032;4.376;2023-03-26T05:28:32;103486.22;;;7.19;100.00
70053;BME280;57398;52.032;4.376;2023-03-26T05:31:20;103471.25;;;7.12;100.00
70053;BME280;57398;52.032;4.376;2023-03-26T05:34:09;103459.13;;;7.13;100.00
70053;BME280;57398;52.032;4.376;2023-03-26T05:36:57;103449.19;;;7.08;100.00
70053;BME280;57398;52.032;4.376;2023-03-26T05:39:46;103446.22;;;7.13;100.00
70053;BME280;57398;52.032;4.376;2023-03-26T05:42:34;103446.06;;;7.14;100.00
70053;BME280;57398;52.032;4.376;2023-03-26T05:45:22;103437.66;;;7.12;100.00
70053;BME280;57398;52.032;4.376;2023-03-26T05:48:10;103431.78;;;7.10;100.00
70053;BME280;57398;52.032;4.376;2023-03-26T05:50:58;103429.91;;;7.12;100.00
70053;BME280;57398;52.032;4.376;2023-03-26T05:53:46;103436.41;;;7.17;100.00
70053;BME280;57398;52.032;4.376;2023-03-26T05:56:35;103428.81;;;7.15;100.00
70053;BME280;57398;52.032;4.376;2023-03-26T05:59:23;103434.50;;;7.19;100.00
70053;BME280;57398;52.032;4.376;2023-03-26T06:02:11;103432.75;;;7.19;100.00
70053;BME280;57398;52.032;4.376;2023-03-26T06:04:59;103435.31;;;7.19;100.00
70053;BME280;57398;52.032;4.376;2023-03-26T06:07:48;103435.31;;;7.19;100.00
70053;BME280;57398;52.032;4.376;2023-03-26T06:10:37;103428.66;;;7.17;100.00
70053;BME280;57398;52.032;4.376;2023-03-26T06:13:26;103431.94;;;7.19;100.00
70053;BME280;57398;52.032;4.376;2023-03-26T06:16:14;103435.78;;;7.24;100.00
70053;BME280;57398;52.032;4.376;2023-03-26T06:19:13;103430.03;;;7.21;100.00
70053;BME280;57398;52.032;4.376;2023-03-26T06:22:01;103426.38;;;7.23;100.00
70053;BME280;57398;52.032;4.376;2023-03-26T06:24:49;103434.00;;;7.25;100.00
70053;BME280;57398;52.032;4.376;2023-03-26T06:27:38;103431.28;;;7.26;100.00
70053;BME280;57398;52.032;4.376;2023-03-26T06:30:27;103418.59;;;7.23;100.00
70053;BME280;57398;52.032;4.376;2023-03-26T06:33:16;103415.78;;;7.26;100.00
70053;BME280;57398;52.032;4.376;2023-03-26T06:36:04;103411.28;;;7.28;100.00
70053;BME280;57398;52.032;4.376;2023-03-26T06:38:53;103408.44;;;7.31;100.00
70053;BME280;57398;52.032;4.376;2023-03-26T06:41:41;103405.72;;;7.33;100.00
70053;BME280;57398;52.032;4.376;2023-03-26T06:44:29;103391.44;;;7.29;100.00
70053;BME280;57398;52.032;4.376;2023-03-26T06:47:18;103392.66;;;7.34;100.00
70053;BME280;57398;52.032;4.376;2023-03-26T06:50:08;103391.44;;;7.39;100.00
70053;BME280;57398;52.032;4.376;2023-03-26T06:52:57;103385.56;;;7.37;100.00
70053;BME280;57398;52.032;4.376;2023-03-26T06:55:45;103375.34;;;7.35;100.00
70053;BME280;57398;52.032;4.376;2023-03-26T06:58:33;103375.09;;;7.38;100.00
70053;BME280;57398;52.032;4.376;2023-03-26T07:01:21;103371.56;;;7.39;100.00
70053;BME280;57398;52.032;4.376;2023-03-26T07:04:11;103368.03;;;7.40;100.00
70053;BME280;57398;52.032;4.376;2023-03-26T07:06:59;103348.44;;;7.38;100.00
70053;BME280;57398;52.032;4.376;2023-03-26T07:09:47;103356.31;;;7.46;100.00
70053;BME280;57398;52.032;4.376;2023-03-26T07:12:35;103358.63;;;7.49;100.00
70053;BME280;57398;52.032;4.376;2023-03-26T07:15:23;103332.34;;;7.44;100.00
70053;BME280;57398;52.032;4.376;2023-03-26T07:18:11;103336.31;;;7.48;100.00
70053;BME280;57398;52.032;4.376;2023-03-26T07:21:01;103328.97;;;7.43;100.00
70053;BME280;57398;52.032;4.376;2023-03-26T07:23:50;103308.00;;;7.37;100.00
70053;BME280;57398;52.032;4.376;2023-03-26T07:26:47;103315.34;;;7.41;100.00
70053;BME280;57398;52.032;4.376;2023-03-26T07:29:42;103313.31;;;7.45;100.00
70053;BME280;57398;52.032;4.376;2023-03-26T07:32:36;103305.97;;;7.50;100.00
70053;BME280;57398;52.032;4.376;2023-03-26T07:35:31;103294.94;;;7.48;100.00
70053;BME280;57398;52.032;4.376;2023-03-26T07:38:35;103271.66;;;7.48;100.00
70053;BME280;57398;52.032;4.376;2023-03-26T07:41:30;103274.50;;;7.54;100.00
70053;BME280;57398;52.032;4.376;2023-03-26T07:44:42;103275.47;;;7.63;100.00
70053;BME280;57398;52.032;4.376;2023-03-26T07:47:35;103252.59;;;7.59;100.00
70053;BME280;57398;52.032;4.376;2023-03-26T07:50:25;103240.19;;;7.62;100.00
70053;BME280;57398;52.032;4.376;2023-03-26T07:53:13;103248.38;;;7.67;100.00
70053;BME280;57398;52.032;4.376;2023-03-26T07:56:08;103250.78;;;7.69;100.00
70053;BME280;57398;52.032;4.376;2023-03-26T07:59:05;103246.72;;;7.66;100.00
70053;BME280;57398;52.032;4.376;2023-03-26T08:02:11;103236.66;;;7.63;100.00
70053;BME280;57398;52.032;4.376;2023-03-26T08:05:08;103220.31;;;7.63;100.00
70053;BME280;57398;52.032;4.376;2023-03-26T08:08:13;103218.69;;;7.62;100.00
70053;BME280;57398;52.032;4.376;2023-03-26T08:11:13;103206.72;;;7.61;100.00
70053;BME280;57398;52.032;4.376;2023-03-26T08:14:17;103211.59;;;7.64;100.00
70053;BME280;57398;52.032;4.376;2023-03-26T08:17:10;103203.56;;;7.67;100.00
70053;BME280;57398;52.032;4.376;2023-03-26T08:20:06;103199.88;;;7.69;100.00
70053;BME280;57398;52.032;4.376;2023-03-26T08:23:04;103197.44;;;7.68;100.00
70053;BME280;57398;52.032;4.376;2023-03-26T08:25:59;103195.25;;;7.73;100.00
70053;BME280;57398;52.032;4.376;2023-03-26T08:28:57;103194.69;;;7.69;100.00
70053;BME280;57398;52.032;4.376;2023-03-26T08:31:49;103194.00;;;7.77;100.00
70053;BME280;57398;52.032;4.376;2023-03-26T08:34:37;103184.22;;;7.71;100.00
70053;BME280;57398;52.032;4.376;2023-03-26T08:37:26;103196.16;;;7.82;100.00
70053;BME280;57398;52.032;4.376;2023-03-26T08:40:25;103187.06;;;7.78;100.00
70053;BME280;57398;52.032;4.376;2023-03-26T08:43:40;103188.66;;;7.79;100.00
70053;BME280;57398;52.032;4.376;2023-03-26T08:47:02;103190.03;;;7.83;100.00
70053;BME280;57398;52.032;4.376;2023-03-26T08:50:32;103170.03;;;7.75;100.00
70053;BME280;57398;52.032;4.376;2023-03-26T08:56:48;103166.91;;;7.71;100.00
70053;BME280;57398;52.032;4.376;2023-03-26T09:03:17;103166.09;;;7.71;100.00
70053;BME280;57398;52.032;4.376;2023-03-26T09:06:18;103164.75;;;7.76;100.00
70053;BME280;57398;52.032;4.376;2023-03-26T09:16:30;103149.09;;;7.68;100.00
70053;BME280;57398;52.032;4.376;2023-03-26T09:19:56;103152.66;;;7.67;100.00
70053;BME280;57398;52.032;4.376;2023-03-26T09:26:22;103154.38;;;7.76;100.00
70053;BME280;57398;52.032;4.376;2023-03-26T09:29:37;103161.13;;;7.87;100.00
70053;BME280;57398;52.032;4.376;2023-03-26T09:36:18;103140.22;;;7.71;100.00
70053;BME280;57398;52.032;4.376;2023-03-26T09:39:11;103125.75;;;7.50;100.00
70053;BME280;57398;52.032;4.376;2023-03-26T09:42:08;103117.34;;;7.39;100.00
70053;BME280;57398;52.032;4.376;2023-03-26T09:45:35;103114.38;;;7.33;100.00
70053;BME280;57398;52.032;4.376;2023-03-26T09:48:50;103115.47;;;7.31;100.00
70053;BME280;57398;52.032;4.376;2023-03-26T09:52:01;103105.00;;;7.23;100.00
70053;BME280;57398;52.032;4.376;2023-03-26T09:55:16;103104.03;;;7.24;100.00
70053;BME280;57398;52.032;4.376;2023-03-26T09:58:22;103113.56;;;7.23;100.00
70053;BME280;57398;52.032;4.376;2023-03-26T10:01:23;103129.75;;;7.25;100.00
70053;BME280;57398;52.032;4.376;2023-03-26T10:04:35;103127.47;;;7.22;100.00
70053;BME280;57398;52.032;4.376;2023-03-26T10:07:50;103099.19;;;7.11;100.00
70053;BME280;57398;52.032;4.376;2023-03-26T10:10:47;103081.91;;;7.11;100.00
70053;BME280;57398;52.032;4.376;2023-03-26T10:13:48;103066.38;;;7.11;100.00
70053;BME280;57398;52.032;4.376;2023-03-26T10:16:51;103088.13;;;7.19;100.00
70053;BME280;57398;52.032;4.376;2023-03-26T10:19:51;103063.81;;;7.11;100.00
70053;BME280;57398;52.032;4.376;2023-03-26T10:22:51;103068.84;;;7.13;100.00
70053;BME280;57398;52.032;4.376;2023-03-26T10:25:54;103080.53;;;7.17;100.00
70053;BME280;57398;52.032;4.376;2023-03-26T10:32:18;103049.09;;;7.12;100.00
70053;BME280;57398;52.032;4.376;2023-03-26T10:35:20;103018.41;;;6.99;100.00
70053;BME280;57398;52.032;4.376;2023-03-26T10:38:16;103010.50;;;7.10;100.00
70053;BME280;57398;52.032;4.376;2023-03-26T10:41:11;102990.34;;;7.14;100.00
70053;BME280;57398;52.032;4.376;2023-03-26T10:44:16;102975.50;;;7.16;100.00
70053;BME280;57398;52.032;4.376;2023-03-26T10:47:39;102941.41;;;7.03;100.00
70053;BME280;57398;52.032;4.376;2023-03-26T10:50:37;102889.97;;;6.82;100.00
70053;BME280;57398;52.032;4.376;2023-03-26T10:53:37;102864.81;;;6.84;100.00
70053;BME280;57398;52.032;4.376;2023-03-26T10:56:32;102873.56;;;7.01;100.00
70053;BME280;57398;52.032;4.376;2023-03-26T10:59:24;102841.47;;;7.03;100.00
70053;BME280;57398;52.032;4.376;2023-03-26T11:02:27;102841.41;;;7.13;100.00
70053;BME280;57398;52.032;4.376;2023-03-26T11:05:26;102812.97;;;7.13;100.00
70053;BME280;57398;52.032;4.376;2023-03-26T11:08:21;102821.78;;;7.38;100.00
70053;BME280;57398;52.032;4.376;2023-03-26T11:11:24;102795.31;;;7.44;100.00
70053;BME280;57398;52.032;4.376;2023-03-26T11:14:20;102773.53;;;7.47;100.00
70053;BME280;57398;52.032;4.376;2023-03-26T11:17:29;102762.97;;;7.40;100.00
70053;BME280;57398;52.032;4.376;2023-03-26T11:20:33;102756.59;;;7.52;100.00
70053;BME280;57398;52.032;4.376;2023-03-26T11:23:33;102716.19;;;7.51;100.00
70053;BME280;57398;52.032;4.376;2023-03-26T11:26:27;102672.31;;;7.42;100.00
70053;BME280;57398;52.032;4.376;2023-03-26T11:29:32;102630.59;;;7.37;100.00
70053;BME280;57398;52.032;4.376;2023-03-26T11:32:25;102631.88;;;7.59;100.00
70053;BME280;57398;52.032;4.376;2023-03-26T11:35:20;102583.94;;;7.46;100.00
70053;BME280;57398;52.032;4.376;2023-03-26T11:38:32;102542.28;;;7.49;100.00
70053;BME280;57398;52.032;4.376;2023-03-26T11:41:27;102503.97;;;7.53;100.00
70053;BME280;57398;52.032;4.376;2023-03-26T11:44:23;102486.28;;;7.91;100.00
70053;BME280;57398;52.032;4.376;2023-03-26T11:47:15;102410.28;;;7.67;100.00
70053;BME280;57398;52.032;4.376;2023-03-26T11:50:08;102364.53;;;7.68;100.00
70053;BME280;57398;52.032;4.376;2023-03-26T11:53:09;102344.50;;;7.70;100.00
70053;BME280;57398;52.032;4.376;2023-03-26T11:56:02;102347.06;;;7.78;100.00
70053;BME280;57398;52.032;4.376;2023-03-26T11:58:55;102341.91;;;7.70;100.00
70053;BME280;57398;52.032;4.376;2023-03-26T12:01:49;102363.22;;;7.80;100.00
70053;BME280;57398;52.032;4.376;2023-03-26T12:04:39;102360.00;;;8.03;100.00
70053;BME280;57398;52.032;4.376;2023-03-26T12:07:29;102369.19;;;8.13;100.00
70053;BME280;57398;52.032;4.376;2023-03-26T12:10:27;102277.28;;;8.17;100.00
70053;BME280;57398;52.032;4.376;2023-03-26T12:13:28;101408.53;;;8.25;100.00
70053;BME280;57398;52.032;4.376;2023-03-26T12:16:21;101339.03;;;8.22;100.00
70053;BME280;57398;52.032;4.376;2023-03-26T12:19:18;101307.59;;;8.25;100.00
70053;BME280;57398;52.032;4.376;2023-03-26T12:22:26;101285.22;;;8.45;100.00
70053;BME280;57398;52.032;4.376;2023-03-26T12:25:17;101255.41;;;8.63;100.00
70053;BME280;57398;52.032;4.376;2023-03-26T12:28:16;101225.56;;;8.73;100.00
70053;BME280;57398;52.032;4.376;2023-03-26T12:31:06;101183.69;;;8.50;100.00
70053;BME280;57398;52.032;4.376;2023-03-26T12:34:12;101169.38;;;8.87;100.00
70053;BME280;57398;52.032;4.376;2023-03-26T12:37:03;101141.09;;;8.86;100.00
70053;BME280;57398;52.032;4.376;2023-03-26T12:40:05;101108.81;;;8.62;100.00
70053;BME280;57398;52.032;4.376;2023-03-26T12:43:04;101074.72;;;8.45;100.00
70053;BME280;57398;52.032;4.376;2023-03-26T12:46:23;101078.50;;;8.49;100.00
70053;BME280;57398;52.032;4.376;2023-03-26T12:49:33;101082.09;;;8.74;100.00
70053;BME280;57398;52.032;4.376;2023-03-26T12:52:33;101073.91;;;8.84;100.00
70053;BME280;57398;52.032;4.376;2023-03-26T12:55:35;101057.81;;;8.62;100.00
70053;BME280;57398;52.032;4.376;2023-03-26T13:01:51;101049.03;;;8.70;100.00
70053;BME280;57398;52.032;4.376;2023-03-26T13:04:54;101051.22;;;8.86;100.00
70053;BME280;57398;52.032;4.376;2023-03-26T13:08:02;101055.59;;;8.99;100.00
70053;BME280;57398;52.032;4.376;2023-03-26T13:11:00;101054.78;;;8.98;100.00
70053;BME280;57398;52.032;4.376;2023-03-26T13:13:59;101023.31;;;8.88;100.00
70053;BME280;57398;52.032;4.376;2023-03-26T13:16:54;101005.78;;;8.90;100.00
70053;BME280;57398;52.032;4.376;2023-03-26T13:19:50;100992.22;;;8.81;100.00
70053;BME280;57398;52.032;4.376;2023-03-26T13:22:49;100987.00;;;9.08;100.00
70053;BME280;57398;52.032;4.376;2023-03-26T13:25:44;100988.13;;;9.32;100.00
70053;BME280;57398;52.032;4.376;2023-03-26T13:28:40;100968.38;;;9.25;100.00
70053;BME280;57398;52.032;4.376;2023-03-26T13:31:36;100955.88;;;9.15;100.00
70053;BME280;57398;52.032;4.376;2023-03-26T13:34:34;100971.69;;;9.45;100.00
70053;BME280;57398;52.032;4.376;2023-03-26T13:37:29;100978.28;;;9.41;100.00
70053;BME280;57398;52.032;4.376;2023-03-26T13:40:25;100960.13;;;8.96;100.00
70053;BME280;57398;52.032;4.376;2023-03-26T13:43:23;100968.28;;;8.99;100.00
70053;BME280;57398;52.032;4.376;2023-03-26T13:46:24;100962.31;;;8.92;100.00
70053;BME280;57398;52.032;4.376;2023-03-26T13:49:19;100957.88;;;9.13;100.00
70053;BME280;57398;52.032;4.376;2023-03-26T13:52:11;100942.75;;;9.10;100.00
70053;BME280;57398;52.032;4.376;2023-03-26T13:55:13;100935.09;;;9.28;100.00
70053;BME280;57398;52.032;4.376;2023-03-26T13:58:11;100941.66;;;9.69;100.00
70053;BME280;57398;52.032;4.376;2023-03-26T14:01:05;100949.19;;;9.71;100.00
70053;BME280;57398;52.032;4.376;2023-03-26T14:03:59;100937.63;;;9.41;100.00
70053;BME280;57398;52.032;4.376;2023-03-26T14:06:52;100951.97;;;9.44;100.00
70053;BME280;57398;52.032;4.376;2023-03-26T14:09:46;100950.16;;;8.99;100.00
70053;BME280;57398;52.032;4.376;2023-03-26T14:12:47;100950.16;;;8.93;100.00
70053;BME280;57398;52.032;4.376;2023-03-26T14:15:42;100971.72;;;8.80;100.00
70053;BME280;57398;52.032;4.376;2023-03-26T14:18:37;100976.16;;;8.66;100.00
70053;BME280;57398;52.032;4.376;2023-03-26T14:21:40;100984.31;;;8.56;100.00
70053;BME280;57398;52.032;4.376;2023-03-26T14:24:42;100988.25;;;8.72;100.00
70053;BME280;57398;52.032;4.376;2023-03-26T14:27:43;100993.06;;;8.75;100.00
70053;BME280;57398;52.032;4.376;2023-03-26T14:30:50;100974.56;;;8.45;100.00
70053;BME280;57398;52.032;4.376;2023-03-26T14:33:52;100984.72;;;8.40;100.00
70053;BME280;57398;52.032;4.376;2023-03-26T14:36:56;100984.34;;;8.43;100.00
70053;BME280;57398;52.032;4.376;2023-03-26T14:40:15;100984.13;;;8.51;100.00
70053;BME280;57398;52.032;4.376;2023-03-26T14:46:34;100984.09;;;8.38;100.00
70053;BME280;57398;52.032;4.376;2023-03-26T14:49:51;100990.88;;;8.32;100.00
70053;BME280;57398;52.032;4.376;2023-03-26T14:52:45;100984.13;;;8.45;100.00
70053;BME280;57398;52.032;4.376;2023-03-26T15:03:04;100991.06;;;8.31;100.00
70053;BME280;57398;52.032;4.376;2023-03-26T15:06:33;100995.06;;;8.20;100.00
70053;BME280;57398;52.032;4.376;2023-03-26T15:10:03;101008.56;;;7.95;100.00
70053;BME280;57398;52.032;4.376;2023-03-26T15:13:11;101030.19;;;7.88;100.00
70053;BME280;57398;52.032;4.376;2023-03-26T15:16:32;101032.22;;;7.86;100.00
70053;BME280;57398;52.032;4.376;2023-03-26T15:19:55;101021.03;;;7.79;100.00
70053;BME280;57398;52.032;4.376;2023-03-26T15:23:27;101024.63;;;7.84;100.00
70053;BME280;57398;52.032;4.376;2023-03-26T15:26:44;101042.56;;;7.99;100.00
70053;BME280;57398;52.032;4.376;2023-03-26T15:33:37;101054.97;;;8.24;100.00
70053;BME280;57398;52.032;4.376;2023-03-26T15:43:13;101054.31;;;7.95;100.00
70053;BME280;57398;52.032;4.376;2023-03-26T15:46:24;101059.72;;;8.07;100.00
70053;BME280;57398;52.032;4.376;2023-03-26T15:49:23;101054.09;;;7.96;100.00
70053;BME280;57398;52.032;4.376;2023-03-26T15:52:23;101053.09;;;7.84;100.00
70053;BME280;57398;52.032;4.376;2023-03-26T15:55:24;101054.97;;;8.24;100.00
70053;BME280;57398;52.032;4.376;2023-03-26T15:58:20;101064.69;;;8.08;100.00
70053;BME280;57398;52.032;4.376;2023-03-26T16:01:15;101036.78;;;7.84;100.00
70053;BME280;57398;52.032;4.376;2023-03-26T16:04:19;101062.31;;;8.07;100.00
70053;BME280;57398;52.032;4.376;2023-03-26T16:07:22;101059.88;;;7.92;100.00